sensor_id;sensor_type;location;lat;lon;timestamp;P1;durP1;ratioP1;P2;durP2;ratioP2
12042;SDS011;6082;49.306;12.862;2023-02-23T00:02:00;10.70;;;5.97;;
12042;SDS011;6082;49.306;12.862;2023-02-23T00:04:33;12.53;;;6.37;;
12042;SDS011;6082;49.306;12.862;2023-02-23T00:06:59;10.03;;;6.57;;
12042;SDS011;6082;49.306;12.862;2023-02-23T00:09:25;10.67;;;6.63;;
12042;SDS011;6082;49.306;12.862;2023-02-23T00:11:59;11.03;;;5.97;;
12042;SDS011;6082;49.306;12.862;2023-02-23T00:14:31;10.87;;;6.53;;
12042;SDS011;6082;49.306;12.862;2023-02-23T00:16:57;12.47;;;6.57;;
12042;SDS011;6082;49.306;12.862;2023-02-23T00:19:24;10.50;;;5.87;;
12042;SDS011;6082;49.306;12.862;2023-02-23T00:21:50;10.07;;;5.87;;
12042;SDS011;6082;49.306;12.862;2023-02-23T00:24:16;9.40;;;6.07;;
12042;SDS011;6082;49.306;12.862;2023-02-23T00:26:47;10.67;;;6.17;;
12042;SDS011;6082;49.306;12.862;2023-02-23T00:29:22;10.57;;;6.27;;
12042;SDS011;6082;49.306;12.862;2023-02-23T00:31:49;10.27;;;6.20;;
12042;SDS011;6082;49.306;12.862;2023-02-23T00:34:16;11.57;;;6.17;;
12042;SDS011;6082;49.306;12.862;2023-02-23T00:36:48;10.27;;;5.93;;
12042;SDS011;6082;49.306;12.862;2023-02-23T00:39:14;11.07;;;5.70;;
12042;SDS011;6082;49.306;12.862;2023-02-23T00:41:46;10.30;;;5.83;;
12042;SDS011;6082;49.306;12.862;2023-02-23T00:44:12;13.47;;;6.60;;
12042;SDS011;6082;49.306;12.862;2023-02-23T00:46:41;9.33;;;5.47;;
12042;SDS011;6082;49.306;12.862;2023-02-23T00:49:08;8.07;;;5.23;;
12042;SDS011;6082;49.306;12.862;2023-02-23T00:51:35;8.67;;;5.33;;
12042;SDS011;6082;49.306;12.862;2023-02-23T00:54:01;10.43;;;6.17;;
12042;SDS011;6082;49.306;12.862;2023-02-23T00:56:28;10.53;;;6.00;;
12042;SDS011;6082;49.306;12.862;2023-02-23T00:58:54;10.07;;;6.10;;
12042;SDS011;6082;49.306;12.862;2023-02-23T01:01:20;12.77;;;6.30;;
12042;SDS011;6082;49.306;12.862;2023-02-23T01:03:47;10.27;;;6.00;;
12042;SDS011;6082;49.306;12.862;2023-02-23T01:06:14;11.87;;;5.83;;
12042;SDS011;6082;49.306;12.862;2023-02-23T01:08:41;9.13;;;5.70;;
12042;SDS011;6082;49.306;12.862;2023-02-23T01:11:12;10.57;;;5.77;;
12042;SDS011;6082;49.306;12.862;2023-02-23T01:13:39;10.63;;;6.13;;
12042;SDS011;6082;49.306;12.862;2023-02-23T01:16:07;10.47;;;5.93;;
12042;SDS011;6082;49.306;12.862;2023-02-23T01:18:33;11.07;;;6.03;;
12042;SDS011;6082;49.306;12.862;2023-02-23T01:21:00;8.37;;;5.37;;
12042;SDS011;6082;49.306;12.862;2023-02-23T01:23:26;12.17;;;5.03;;
12042;SDS011;6082;49.306;12.862;2023-02-23T01:25:52;8.90;;;5.60;;
12042;SDS011;6082;49.306;12.862;2023-02-23T01:28:18;9.23;;;5.67;;
12042;SDS011;6082;49.306;12.862;2023-02-23T01:30:44;10.43;;;5.70;;
12042;SDS011;6082;49.306;12.862;2023-02-23T01:33:10;11.67;;;5.30;;
12042;SDS011;6082;49.306;12.862;2023-02-23T01:35:37;6.80;;;4.93;;
12042;SDS011;6082;49.306;12.862;2023-02-23T01:38:04;7.17;;;5.30;;
12042;SDS011;6082;49.306;12.862;2023-02-23T01:40:30;8.97;;;5.63;;
12042;SDS011;6082;49.306;12.862;2023-02-23T01:42:58;9.77;;;5.70;;
12042;SDS011;6082;49.306;12.862;2023-02-23T01:47:52;12.03;;;6.50;;
12042;SDS011;6082;49.306;12.862;2023-02-23T01:50:25;8.70;;;5.70;;
12042;SDS011;6082;49.306;12.862;2023-02-23T01:52:52;9.83;;;5.47;;
12042;SDS011;6082;49.306;12.862;2023-02-23T01:55:19;11.37;;;6.10;;
12042;SDS011;6082;49.306;12.862;2023-02-23T01:58:10;9.50;;;6.47;;
12042;SDS011;6082;49.306;12.862;2023-02-23T02:00:40;9.60;;;5.90;;
12042;SDS011;6082;49.306;12.862;2023-02-23T02:03:07;12.57;;;6.53;;
12042;SDS011;6082;49.306;12.862;2023-02-23T02:05:36;11.97;;;6.40;;
12042;SDS011;6082;49.306;12.862;2023-02-23T02:08:03;13.00;;;6.90;;
12042;SDS011;6082;49.306;12.862;2023-02-23T02:10:30;14.00;;;7.37;;
12042;SDS011;6082;49.306;12.862;2023-02-23T02:13:11;12.67;;;6.97;;
12042;SDS011;6082;49.306;12.862;2023-02-23T02:15:58;12.00;;;7.00;;
12042;SDS011;6082;49.306;12.862;2023-02-23T02:18:34;10.17;;;5.67;;
12042;SDS011;6082;49.306;12.862;2023-02-23T02:39:32;8.30;;;5.33;;
12042;SDS011;6082;49.306;12.862;2023-02-23T02:47:21;7.63;;;5.13;;
12042;SDS011;6082;49.306;12.862;2023-02-23T02:49:55;9.33;;;5.43;;
12042;SDS011;6082;49.306;12.862;2023-02-23T02:54:51;10.17;;;5.63;;
12042;SDS011;6082;49.306;12.862;2023-02-23T02:57:19;9.40;;;5.37;;
12042;SDS011;6082;49.306;12.862;2023-02-23T02:59:48;13.20;;;7.70;;
12042;SDS011;6082;49.306;12.862;2023-02-23T03:02:34;11.93;;;6.77;;
12042;SDS011;6082;49.306;12.862;2023-02-23T03:05:21;10.03;;;6.40;;
12042;SDS011;6082;49.306;12.862;2023-02-23T03:08:20;10.87;;;6.33;;
12042;SDS011;6082;49.306;12.862;2023-02-23T03:11:10;10.57;;;6.13;;
12042;SDS011;6082;49.306;12.862;2023-02-23T03:20:05;11.37;;;4.97;;
12042;SDS011;6082;49.306;12.862;2023-02-23T03:22:59;6.23;;;3.80;;
12042;SDS011;6082;49.306;12.862;2023-02-23T03:26:08;6.40;;;4.00;;
12042;SDS011;6082;49.306;12.862;2023-02-23T03:32:09;9.27;;;4.87;;
12042;SDS011;6082;49.306;12.862;2023-02-23T03:34:58;8.50;;;4.97;;
12042;SDS011;6082;49.306;12.862;2023-02-23T03:40:40;9.40;;;4.97;;
12042;SDS011;6082;49.306;12.862;2023-02-23T03:43:31;10.00;;;5.23;;
12042;SDS011;6082;49.306;12.862;2023-02-23T03:46:18;6.57;;;4.63;;
12042;SDS011;6082;49.306;12.862;2023-02-23T03:49:04;10.00;;;4.40;;
12042;SDS011;6082;49.306;12.862;2023-02-23T03:51:52;6.00;;;3.73;;
12042;SDS011;6082;49.306;12.862;2023-02-23T03:54:38;6.17;;;4.00;;
12042;SDS011;6082;49.306;12.862;2023-02-23T03:57:25;11.33;;;4.13;;
12042;SDS011;6082;49.306;12.862;2023-02-23T04:00:11;8.50;;;4.83;;
12042;SDS011;6082;49.306;12.862;2023-02-23T04:02:58;8.17;;;4.73;;
12042;SDS011;6082;49.306;12.862;2023-02-23T04:05:44;5.17;;;3.67;;
12042;SDS011;6082;49.306;12.862;2023-02-23T04:08:32;5.97;;;3.90;;
12042;SDS011;6082;49.306;12.862;2023-02-23T04:14:03;6.23;;;4.40;;
12042;SDS011;6082;49.306;12.862;2023-02-23T04:16:31;6.40;;;3.97;;
12042;SDS011;6082;49.306;12.862;2023-02-23T04:18:57;10.73;;;5.53;;
12042;SDS011;6082;49.306;12.862;2023-02-23T04:21:23;8.50;;;4.83;;
12042;SDS011;6082;49.306;12.862;2023-02-23T04:23:49;8.30;;;4.97;;
12042;SDS011;6082;49.306;12.862;2023-02-23T04:26:16;7.00;;;4.10;;
12042;SDS011;6082;49.306;12.862;2023-02-23T04:28:42;9.33;;;5.17;;
12042;SDS011;6082;49.306;12.862;2023-02-23T04:31:08;8.83;;;4.83;;
12042;SDS011;6082;49.306;12.862;2023-02-23T04:33:34;11.23;;;5.20;;
12042;SDS011;6082;49.306;12.862;2023-02-23T04:36:00;7.50;;;5.40;;
12042;SDS011;6082;49.306;12.862;2023-02-23T04:38:26;7.03;;;4.40;;
12042;SDS011;6082;49.306;12.862;2023-02-23T04:40:52;7.73;;;4.87;;
12042;SDS011;6082;49.306;12.862;2023-02-23T04:43:18;8.87;;;5.37;;
12042;SDS011;6082;49.306;12.862;2023-02-23T04:45:44;7.67;;;5.10;;
12042;SDS011;6082;49.306;12.862;2023-02-23T04:48:10;6.00;;;4.13;;
12042;SDS011;6082;49.306;12.862;2023-02-23T04:50:36;8.33;;;4.37;;
12042;SDS011;6082;49.306;12.862;2023-02-23T04:53:03;7.23;;;4.63;;
12042;SDS011;6082;49.306;12.862;2023-02-23T04:55:29;10.83;;;5.03;;
12042;SDS011;6082;49.306;12.862;2023-02-23T04:57:57;6.37;;;4.33;;
12042;SDS011;6082;49.306;12.862;2023-02-23T05:00:24;9.93;;;4.30;;
12042;SDS011;6082;49.306;12.862;2023-02-23T05:02:50;7.00;;;4.03;;
12042;SDS011;6082;49.306;12.862;2023-02-23T05:05:16;6.20;;;4.07;;
12042;SDS011;6082;49.306;12.862;2023-02-23T05:07:43;6.27;;;4.27;;
12042;SDS011;6082;49.306;12.862;2023-02-23T05:10:09;7.50;;;4.33;;
12042;SDS011;6082;49.306;12.862;2023-02-23T05:12:35;6.30;;;4.17;;
12042;SDS011;6082;49.306;12.862;2023-02-23T05:15:02;7.93;;;4.67;;
12042;SDS011;6082;49.306;12.862;2023-02-23T05:17:28;7.13;;;4.37;;
12042;SDS011;6082;49.306;12.862;2023-02-23T05:19:54;6.73;;;4.13;;
12042;SDS011;6082;49.306;12.862;2023-02-23T05:22:21;8.83;;;4.57;;
12042;SDS011;6082;49.306;12.862;2023-02-23T05:24:47;8.27;;;4.57;;
12042;SDS011;6082;49.306;12.862;2023-02-23T05:27:16;6.23;;;4.40;;
12042;SDS011;6082;49.306;12.862;2023-02-23T05:29:42;9.07;;;5.07;;
12042;SDS011;6082;49.306;12.862;2023-02-23T05:32:09;9.97;;;5.70;;
12042;SDS011;6082;49.306;12.862;2023-02-23T05:34:35;7.03;;;4.57;;
12042;SDS011;6082;49.306;12.862;2023-02-23T05:37:03;9.60;;;5.13;;
12042;SDS011;6082;49.306;12.862;2023-02-23T05:39:29;10.23;;;5.37;;
12042;SDS011;6082;49.306;12.862;2023-02-23T05:41:55;6.40;;;4.57;;
12042;SDS011;6082;49.306;12.862;2023-02-23T05:44:21;8.07;;;5.10;;
12042;SDS011;6082;49.306;12.862;2023-02-23T05:46:48;12.30;;;5.30;;
12042;SDS011;6082;49.306;12.862;2023-02-23T05:49:14;9.03;;;5.53;;
12042;SDS011;6082;49.306;12.862;2023-02-23T05:51:40;9.50;;;5.43;;
12042;SDS011;6082;49.306;12.862;2023-02-23T05:54:07;8.60;;;5.60;;
12042;SDS011;6082;49.306;12.862;2023-02-23T05:56:34;10.23;;;6.03;;
12042;SDS011;6082;49.306;12.862;2023-02-23T05:59:00;11.20;;;5.73;;
12042;SDS011;6082;49.306;12.862;2023-02-23T06:01:28;11.27;;;5.40;;
12042;SDS011;6082;49.306;12.862;2023-02-23T06:03:57;9.27;;;5.30;;
12042;SDS011;6082;49.306;12.862;2023-02-23T06:06:23;11.80;;;5.50;;
12042;SDS011;6082;49.306;12.862;2023-02-23T06:08:50;10.50;;;5.10;;
12042;SDS011;6082;49.306;12.862;2023-02-23T06:11:16;8.70;;;5.00;;
12042;SDS011;6082;49.306;12.862;2023-02-23T06:13:42;9.73;;;5.43;;
12042;SDS011;6082;49.306;12.862;2023-02-23T06:16:08;14.50;;;5.83;;
12042;SDS011;6082;49.306;12.862;2023-02-23T06:18:34;9.50;;;5.50;;
12042;SDS011;6082;49.306;12.862;2023-02-23T06:21:01;6.63;;;4.83;;
12042;SDS011;6082;49.306;12.862;2023-02-23T06:23:28;9.50;;;5.03;;
12042;SDS011;6082;49.306;12.862;2023-02-23T06:25:54;7.57;;;4.90;;
12042;SDS011;6082;49.306;12.862;2023-02-23T06:28:20;8.57;;;5.40;;
12042;SDS011;6082;49.306;12.862;2023-02-23T06:30:50;11.00;;;6.43;;
12042;SDS011;6082;49.306;12.862;2023-02-23T06:33:16;11.20;;;5.70;;
12042;SDS011;6082;49.306;12.862;2023-02-23T06:35:42;10.67;;;6.17;;
12042;SDS011;6082;49.306;12.862;2023-02-23T06:38:09;11.83;;;5.37;;
12042;SDS011;6082;49.306;12.862;2023-02-23T06:40:36;11.87;;;5.97;;
12042;SDS011;6082;49.306;12.862;2023-02-23T06:43:02;11.30;;;6.40;;
12042;SDS011;6082;49.306;12.862;2023-02-23T06:45:29;9.63;;;6.07;;
12042;SDS011;6082;49.306;12.862;2023-02-23T06:47:56;11.33;;;7.00;;
12042;SDS011;6082;49.306;12.862;2023-02-23T06:50:22;12.30;;;6.87;;
12042;SDS011;6082;49.306;12.862;2023-02-23T06:52:48;10.00;;;6.10;;
12042;SDS011;6082;49.306;12.862;2023-02-23T06:55:14;9.53;;;5.80;;
12042;SDS011;6082;49.306;12.862;2023-02-23T06:57:40;9.77;;;6.77;;
12042;SDS011;6082;49.306;12.862;2023-02-23T07:00:08;11.83;;;7.43;;
12042;SDS011;6082;49.306;12.862;2023-02-23T07:02:35;11.53;;;6.13;;
12042;SDS011;6082;49.306;12.862;2023-02-23T07:05:02;9.20;;;5.07;;
12042;SDS011;6082;49.306;12.862;2023-02-23T07:07:28;10.20;;;6.30;;
12042;SDS011;6082;49.306;12.862;2023-02-23T07:09:54;13.67;;;6.43;;
12042;SDS011;6082;49.306;12.862;2023-02-23T07:12:20;11.83;;;6.90;;
12042;SDS011;6082;49.306;12.862;2023-02-23T07:14:47;11.27;;;6.77;;
12042;SDS011;6082;49.306;12.862;2023-02-23T07:17:13;8.97;;;6.27;;
12042;SDS011;6082;49.306;12.862;2023-02-23T07:19:42;12.37;;;7.47;;
12042;SDS011;6082;49.306;12.862;2023-02-23T07:22:08;10.80;;;7.60;;
12042;SDS011;6082;49.306;12.862;2023-02-23T07:24:35;11.67;;;7.30;;
12042;SDS011;6082;49.306;12.862;2023-02-23T07:27:02;13.20;;;8.57;;
12042;SDS011;6082;49.306;12.862;2023-02-23T07:29:28;18.93;;;10.57;;
12042;SDS011;6082;49.306;12.862;2023-02-23T07:31:54;13.30;;;8.37;;
12042;SDS011;6082;49.306;12.862;2023-02-23T07:34:20;13.23;;;8.93;;
12042;SDS011;6082;49.306;12.862;2023-02-23T07:36:47;14.17;;;8.93;;
12042;SDS011;6082;49.306;12.862;2023-02-23T07:39:13;13.97;;;9.13;;
12042;SDS011;6082;49.306;12.862;2023-02-23T07:41:39;13.23;;;8.87;;
12042;SDS011;6082;49.306;12.862;2023-02-23T07:44:05;17.90;;;8.67;;
12042;SDS011;6082;49.306;12.862;2023-02-23T07:46:31;14.57;;;9.43;;
12042;SDS011;6082;49.306;12.862;2023-02-23T07:48:57;14.43;;;8.77;;
12042;SDS011;6082;49.306;12.862;2023-02-23T07:51:23;15.20;;;9.27;;
12042;SDS011;6082;49.306;12.862;2023-02-23T07:53:49;11.30;;;6.63;;
12042;SDS011;6082;49.306;12.862;2023-02-23T07:56:16;12.40;;;6.63;;
12042;SDS011;6082;49.306;12.862;2023-02-23T07:58:43;12.63;;;6.47;;
12042;SDS011;6082;49.306;12.862;2023-02-23T08:01:09;13.87;;;7.40;;
12042;SDS011;6082;49.306;12.862;2023-02-23T08:03:36;13.83;;;7.67;;
12042;SDS011;6082;49.306;12.862;2023-02-23T08:06:03;16.37;;;8.57;;
12042;SDS011;6082;49.306;12.862;2023-02-23T08:08:29;12.97;;;7.83;;
12042;SDS011;6082;49.306;12.862;2023-02-23T08:11:02;11.57;;;7.47;;
12042;SDS011;6082;49.306;12.862;2023-02-23T08:13:29;13.37;;;7.93;;
12042;SDS011;6082;49.306;12.862;2023-02-23T08:15:55;12.17;;;8.37;;
12042;SDS011;6082;49.306;12.862;2023-02-23T08:18:22;11.93;;;7.90;;
12042;SDS011;6082;49.306;12.862;2023-02-23T08:20:48;13.97;;;8.00;;
12042;SDS011;6082;49.306;12.862;2023-02-23T08:23:14;16.17;;;7.73;;
12042;SDS011;6082;49.306;12.862;2023-02-23T08:25:42;11.10;;;7.97;;
12042;SDS011;6082;49.306;12.862;2023-02-23T08:28:08;10.97;;;6.87;;
12042;SDS011;6082;49.306;12.862;2023-02-23T08:30:34;15.43;;;8.33;;
12042;SDS011;6082;49.306;12.862;2023-02-23T08:33:03;13.37;;;7.93;;
12042;SDS011;6082;49.306;12.862;2023-02-23T08:35:30;12.77;;;8.27;;
12042;SDS011;6082;49.306;12.862;2023-02-23T08:37:56;11.67;;;7.67;;
12042;SDS011;6082;49.306;12.862;2023-02-23T08:40:23;15.50;;;8.20;;
12042;SDS011;6082;49.306;12.862;2023-02-23T08:42:49;12.97;;;7.27;;
12042;SDS011;6082;49.306;12.862;2023-02-23T08:45:18;12.97;;;7.70;;
12042;SDS011;6082;49.306;12.862;2023-02-23T08:47:44;11.50;;;7.20;;
12042;SDS011;6082;49.306;12.862;2023-02-23T08:50:10;13.37;;;7.37;;
12042;SDS011;6082;49.306;12.862;2023-02-23T08:52:37;15.40;;;8.33;;
12042;SDS011;6082;49.306;12.862;2023-02-23T08:55:03;16.80;;;8.80;;
12042;SDS011;6082;49.306;12.862;2023-02-23T08:57:33;15.10;;;8.57;;
12042;SDS011;6082;49.306;12.862;2023-02-23T08:59:59;14.40;;;9.03;;
12042;SDS011;6082;49.306;12.862;2023-02-23T09:02:26;13.23;;;8.03;;
12042;SDS011;6082;49.306;12.862;2023-02-23T09:04:52;14.00;;;8.27;;
12042;SDS011;6082;49.306;12.862;2023-02-23T09:07:19;12.20;;;7.97;;
12042;SDS011;6082;49.306;12.862;2023-02-23T09:09:51;15.13;;;8.43;;
12042;SDS011;6082;49.306;12.862;2023-02-23T09:12:17;11.70;;;7.80;;
12042;SDS011;6082;49.306;12.862;2023-02-23T09:14:43;17.33;;;9.93;;
12042;SDS011;6082;49.306;12.862;2023-02-23T09:17:09;15.07;;;9.10;;
12042;SDS011;6082;49.306;12.862;2023-02-23T09:19:36;20.07;;;10.07;;
12042;SDS011;6082;49.306;12.862;2023-02-23T09:22:02;16.83;;;9.10;;
12042;SDS011;6082;49.306;12.862;2023-02-23T09:24:28;14.23;;;8.13;;
12042;SDS011;6082;49.306;12.862;2023-02-23T09:26:54;12.47;;;7.20;;
12042;SDS011;6082;49.306;12.862;2023-02-23T09:29:20;11.33;;;6.60;;
12042;SDS011;6082;49.306;12.862;2023-02-23T09:31:47;10.73;;;7.50;;
12042;SDS011;6082;49.306;12.862;2023-02-23T09:34:15;12.27;;;7.00;;
12042;SDS011;6082;49.306;12.862;2023-02-23T09:36:41;13.57;;;7.33;;
12042;SDS011;6082;49.306;12.862;2023-02-23T09:39:07;15.80;;;7.83;;
12042;SDS011;6082;49.306;12.862;2023-02-23T09:47:03;12.53;;;7.27;;
12042;SDS011;6082;49.306;12.862;2023-02-23T09:49:34;12.03;;;7.97;;
12042;SDS011;6082;49.306;12.862;2023-02-23T09:52:02;12.13;;;7.93;;
12042;SDS011;6082;49.306;12.862;2023-02-23T09:54:29;12.80;;;7.73;;
12042;SDS011;6082;49.306;12.862;2023-02-23T09:56:58;16.93;;;8.43;;
12042;SDS011;6082;49.306;12.862;2023-02-23T09:59:25;10.70;;;6.97;;
12042;SDS011;6082;49.306;12.862;2023-02-23T10:02:01;17.23;;;8.30;;
12042;SDS011;6082;49.306;12.862;2023-02-23T10:04:35;10.60;;;6.53;;
12042;SDS011;6082;49.306;12.862;2023-02-23T10:14:44;14.97;;;7.87;;
12042;SDS011;6082;49.306;12.862;2023-02-23T10:22:13;14.10;;;8.47;;
12042;SDS011;6082;49.306;12.862;2023-02-23T10:24:41;17.50;;;10.40;;
12042;SDS011;6082;49.306;12.862;2023-02-23T10:27:09;15.53;;;8.90;;
12042;SDS011;6082;49.306;12.862;2023-02-23T10:29:41;11.93;;;7.37;;
12042;SDS011;6082;49.306;12.862;2023-02-23T10:34:43;14.60;;;8.37;;
12042;SDS011;6082;49.306;12.862;2023-02-23T10:37:12;14.50;;;9.10;;
12042;SDS011;6082;49.306;12.862;2023-02-23T10:39:40;16.00;;;8.17;;
12042;SDS011;6082;49.306;12.862;2023-02-23T10:42:13;13.37;;;8.20;;
12042;SDS011;6082;49.306;12.862;2023-02-23T10:44:41;12.70;;;7.80;;
12042;SDS011;6082;49.306;12.862;2023-02-23T10:47:10;14.77;;;8.17;;
12042;SDS011;6082;49.306;12.862;2023-02-23T10:49:48;17.17;;;9.67;;
12042;SDS011;6082;49.306;12.862;2023-02-23T10:52:17;17.07;;;9.17;;
12042;SDS011;6082;49.306;12.862;2023-02-23T10:54:48;18.67;;;9.93;;
12042;SDS011;6082;49.306;12.862;2023-02-23T10:57:25;15.97;;;8.97;;
12042;SDS011;6082;49.306;12.862;2023-02-23T10:59:59;19.10;;;9.90;;
12042;SDS011;6082;49.306;12.862;2023-02-23T11:02:26;19.80;;;9.87;;
12042;SDS011;6082;49.306;12.862;2023-02-23T11:04:55;18.77;;;9.87;;
12042;SDS011;6082;49.306;12.862;2023-02-23T11:07:26;16.60;;;10.07;;
12042;SDS011;6082;49.306;12.862;2023-02-23T11:09:54;20.57;;;11.63;;
12042;SDS011;6082;49.306;12.862;2023-02-23T11:12:22;18.33;;;10.57;;
12042;SDS011;6082;49.306;12.862;2023-02-23T11:14:52;15.50;;;9.67;;
12042;SDS011;6082;49.306;12.862;2023-02-23T11:17:32;16.80;;;10.20;;
12042;SDS011;6082;49.306;12.862;2023-02-23T11:19:59;20.73;;;10.30;;
12042;SDS011;6082;49.306;12.862;2023-02-23T11:22:28;21.23;;;11.30;;
12042;SDS011;6082;49.306;12.862;2023-02-23T11:24:55;20.70;;;11.90;;
12042;SDS011;6082;49.306;12.862;2023-02-23T11:27:22;17.40;;;9.73;;
12042;SDS011;6082;49.306;12.862;2023-02-23T11:29:49;15.80;;;9.20;;
12042;SDS011;6082;49.306;12.862;2023-02-23T11:34:44;18.53;;;9.63;;
12042;SDS011;6082;49.306;12.862;2023-02-23T11:42:19;16.53;;;8.93;;
12042;SDS011;6082;49.306;12.862;2023-02-23T11:45:00;20.40;;;10.07;;
12042;SDS011;6082;49.306;12.862;2023-02-23T11:47:27;19.03;;;11.13;;
12042;SDS011;6082;49.306;12.862;2023-02-23T11:49:53;22.23;;;11.07;;
12042;SDS011;6082;49.306;12.862;2023-02-23T11:52:21;21.17;;;11.30;;
12042;SDS011;6082;49.306;12.862;2023-02-23T11:54:59;19.20;;;10.73;;
12042;SDS011;6082;49.306;12.862;2023-02-23T11:57:44;21.20;;;10.77;;
12042;SDS011;6082;49.306;12.862;2023-02-23T12:00:34;19.50;;;11.07;;
12042;SDS011;6082;49.306;12.862;2023-02-23T12:02:59;21.77;;;11.17;;
12042;SDS011;6082;49.306;12.862;2023-02-23T12:05:29;18.13;;;10.47;;
12042;SDS011;6082;49.306;12.862;2023-02-23T12:18:44;20.53;;;11.53;;
12042;SDS011;6082;49.306;12.862;2023-02-23T12:23:39;20.07;;;11.50;;
12042;SDS011;6082;49.306;12.862;2023-02-23T12:26:17;17.43;;;10.37;;
12042;SDS011;6082;49.306;12.862;2023-02-23T12:31:46;17.60;;;10.23;;
12042;SDS011;6082;49.306;12.862;2023-02-23T12:34:26;18.60;;;10.60;;
12042;SDS011;6082;49.306;12.862;2023-02-23T12:36:57;15.13;;;9.33;;
12042;SDS011;6082;49.306;12.862;2023-02-23T12:39:31;21.17;;;10.60;;
12042;SDS011;6082;49.306;12.862;2023-02-23T12:46:51;16.63;;;10.83;;
12042;SDS011;6082;49.306;12.862;2023-02-23T12:49:42;19.07;;;10.57;;
12042;SDS011;6082;49.306;12.862;2023-02-23T12:52:08;17.43;;;9.97;;
12042;SDS011;6082;49.306;12.862;2023-02-23T12:54:38;16.60;;;10.17;;
12042;SDS011;6082;49.306;12.862;2023-02-23T13:12:35;20.60;;;11.17;;
12042;SDS011;6082;49.306;12.862;2023-02-23T13:17:36;21.20;;;11.97;;
12042;SDS011;6082;49.306;12.862;2023-02-23T13:20:06;19.93;;;11.60;;
12042;SDS011;6082;49.306;12.862;2023-02-23T13:22:38;19.20;;;11.47;;
12042;SDS011;6082;49.306;12.862;2023-02-23T13:25:27;17.40;;;10.17;;
12042;SDS011;6082;49.306;12.862;2023-02-23T13:27:55;17.83;;;10.43;;
12042;SDS011;6082;49.306;12.862;2023-02-23T13:30:24;19.37;;;11.40;;
12042;SDS011;6082;49.306;12.862;2023-02-23T13:32:50;16.90;;;10.20;;
12042;SDS011;6082;49.306;12.862;2023-02-23T13:35:17;20.63;;;11.57;;
12042;SDS011;6082;49.306;12.862;2023-02-23T13:37:53;20.47;;;11.47;;
12042;SDS011;6082;49.306;12.862;2023-02-23T13:45:34;20.47;;;11.47;;
12042;SDS011;6082;49.306;12.862;2023-02-23T13:50:50;23.77;;;13.17;;
12042;SDS011;6082;49.306;12.862;2023-02-23T13:56:07;19.23;;;11.70;;
12042;SDS011;6082;49.306;12.862;2023-02-23T13:58:34;20.87;;;12.70;;
12042;SDS011;6082;49.306;12.862;2023-02-23T14:03:29;19.47;;;11.60;;
12042;SDS011;6082;49.306;12.862;2023-02-23T14:05:59;22.03;;;12.53;;
12042;SDS011;6082;49.306;12.862;2023-02-23T14:08:27;20.60;;;12.00;;
12042;SDS011;6082;49.306;12.862;2023-02-23T14:10:55;20.80;;;12.53;;
12042;SDS011;6082;49.306;12.862;2023-02-23T14:13:26;20.90;;;11.43;;
12042;SDS011;6082;49.306;12.862;2023-02-23T14:16:09;24.67;;;12.13;;
12042;SDS011;6082;49.306;12.862;2023-02-23T14:21:30;20.30;;;11.70;;
12042;SDS011;6082;49.306;12.862;2023-02-23T14:24:02;20.93;;;12.33;;
12042;SDS011;6082;49.306;12.862;2023-02-23T14:29:40;21.53;;;11.73;;
12042;SDS011;6082;49.306;12.862;2023-02-23T14:32:01;17.77;;;11.47;;
12042;SDS011;6082;49.306;12.862;2023-02-23T14:37:15;20.90;;;11.03;;
12042;SDS011;6082;49.306;12.862;2023-02-23T14:39:41;18.23;;;10.40;;
12042;SDS011;6082;49.306;12.862;2023-02-23T14:42:07;20.77;;;10.70;;
12042;SDS011;6082;49.306;12.862;2023-02-23T14:44:34;23.07;;;11.03;;
12042;SDS011;6082;49.306;12.862;2023-02-23T14:47:06;18.43;;;10.77;;
12042;SDS011;6082;49.306;12.862;2023-02-23T14:49:37;20.77;;;10.97;;
12042;SDS011;6082;49.306;12.862;2023-02-23T14:52:07;18.37;;;10.13;;
12042;SDS011;6082;49.306;12.862;2023-02-23T14:54:35;20.63;;;11.87;;
12042;SDS011;6082;49.306;12.862;2023-02-23T14:57:03;21.27;;;12.53;;
12042;SDS011;6082;49.306;12.862;2023-02-23T14:59:40;23.87;;;12.80;;
12042;SDS011;6082;49.306;12.862;2023-02-23T15:02:07;22.60;;;13.47;;
12042;SDS011;6082;49.306;12.862;2023-02-23T15:04:34;28.87;;;14.83;;
12042;SDS011;6082;49.306;12.862;2023-02-23T15:07:02;26.97;;;13.47;;
12042;SDS011;6082;49.306;12.862;2023-02-23T15:09:37;24.70;;;13.47;;
12042;SDS011;6082;49.306;12.862;2023-02-23T15:14:38;28.30;;;13.90;;
12042;SDS011;6082;49.306;12.862;2023-02-23T15:17:05;34.47;;;15.90;;
12042;SDS011;6082;49.306;12.862;2023-02-23T15:19:33;30.87;;;16.00;;
12042;SDS011;6082;49.306;12.862;2023-02-23T15:22:00;32.87;;;20.17;;
12042;SDS011;6082;49.306;12.862;2023-02-23T15:24:29;35.20;;;18.67;;
12042;SDS011;6082;49.306;12.862;2023-02-23T15:26:56;34.37;;;17.73;;
12042;SDS011;6082;49.306;12.862;2023-02-23T15:29:24;26.70;;;14.80;;
12042;SDS011;6082;49.306;12.862;2023-02-23T15:31:52;25.67;;;12.80;;
12042;SDS011;6082;49.306;12.862;2023-02-23T15:34:25;23.30;;;13.20;;
12042;SDS011;6082;49.306;12.862;2023-02-23T15:36:59;23.93;;;13.13;;
12042;SDS011;6082;49.306;12.862;2023-02-23T15:42:01;27.87;;;12.93;;
12042;SDS011;6082;49.306;12.862;2023-02-23T15:44:28;27.13;;;13.33;;
12042;SDS011;6082;49.306;12.862;2023-02-23T15:47:01;27.53;;;13.00;;
12042;SDS011;6082;49.306;12.862;2023-02-23T15:49:28;25.77;;;13.67;;
12042;SDS011;6082;49.306;12.862;2023-02-23T15:51:56;25.50;;;12.37;;
12042;SDS011;6082;49.306;12.862;2023-02-23T15:54:27;25.53;;;12.40;;
12042;SDS011;6082;49.306;12.862;2023-02-23T15:56:56;24.87;;;14.07;;
12042;SDS011;6082;49.306;12.862;2023-02-23T15:59:26;27.60;;;16.03;;
12042;SDS011;6082;49.306;12.862;2023-02-23T16:01:58;33.07;;;16.67;;
12042;SDS011;6082;49.306;12.862;2023-02-23T16:04:28;29.33;;;14.97;;
12042;SDS011;6082;49.306;12.862;2023-02-23T16:09:31;27.33;;;13.70;;
12042;SDS011;6082;49.306;12.862;2023-02-23T16:12:02;28.47;;;15.20;;
12042;SDS011;6082;49.306;12.862;2023-02-23T16:17:59;26.07;;;13.83;;
12042;SDS011;6082;49.306;12.862;2023-02-23T16:22:38;26.83;;;13.43;;
12042;SDS011;6082;49.306;12.862;2023-02-23T16:25:06;25.90;;;13.63;;
12042;SDS011;6082;49.306;12.862;2023-02-23T16:27:33;22.97;;;12.53;;
12042;SDS011;6082;49.306;12.862;2023-02-23T16:33:20;27.73;;;13.63;;
12042;SDS011;6082;49.306;12.862;2023-02-23T16:35:48;30.23;;;14.77;;
12042;SDS011;6082;49.306;12.862;2023-02-23T16:40:50;24.73;;;13.63;;
12042;SDS011;6082;49.306;12.862;2023-02-23T16:43:16;29.77;;;14.47;;
12042;SDS011;6082;49.306;12.862;2023-02-23T16:45:42;31.77;;;15.77;;
12042;SDS011;6082;49.306;12.862;2023-02-23T16:48:15;36.90;;;17.47;;
12042;SDS011;6082;49.306;12.862;2023-02-23T16:50:42;35.07;;;17.17;;
12042;SDS011;6082;49.306;12.862;2023-02-23T16:53:09;37.13;;;18.37;;
12042;SDS011;6082;49.306;12.862;2023-02-23T16:55:37;33.50;;;17.00;;
12042;SDS011;6082;49.306;12.862;2023-02-23T16:58:06;36.07;;;17.10;;
12042;SDS011;6082;49.306;12.862;2023-02-23T17:00:33;30.07;;;16.00;;
12042;SDS011;6082;49.306;12.862;2023-02-23T17:02:59;36.73;;;17.07;;
12042;SDS011;6082;49.306;12.862;2023-02-23T17:05:26;34.17;;;17.20;;
12042;SDS011;6082;49.306;12.862;2023-02-23T17:07:53;33.87;;;17.33;;
12042;SDS011;6082;49.306;12.862;2023-02-23T17:10:21;31.73;;;16.57;;
12042;SDS011;6082;49.306;12.862;2023-02-23T17:13:01;29.93;;;14.83;;
12042;SDS011;6082;49.306;12.862;2023-02-23T17:15:29;28.83;;;15.23;;
12042;SDS011;6082;49.306;12.862;2023-02-23T17:17:56;26.77;;;14.80;;
12042;SDS011;6082;49.306;12.862;2023-02-23T17:20:22;28.93;;;15.20;;